sensor_id;sensor_type;location;lat;lon;timestamp;temperature;humidity
56861;DHT22;42744;51.094;3.490;2023-12-14T00:00:29;8.40;99.90
56861;DHT22;42744;51.094;3.490;2023-12-14T00:02:56;8.40;99.90
56861;DHT22;42744;51.094;3.490;2023-12-14T00:05:23;8.40;99.90
56861;DHT22;42744;51.094;3.490;2023-12-14T00:07:49;8.40;99.90
56861;DHT22;42744;51.094;3.490;2023-12-14T00:10:15;8.40;99.90
56861;DHT22;42744;51.094;3.490;2023-12-14T00:12:44;8.40;99.90
56861;DHT22;42744;51.094;3.490;2023-12-14T00:15:09;8.40;99.90
56861;DHT22;42744;51.094;3.490;2023-12-14T00:17:36;8.40;99.90
56861;DHT22;42744;51.094;3.490;2023-12-14T00:20:02;8.40;99.90
56861;DHT22;42744;51.094;3.490;2023-12-14T00:22:28;8.40;99.90
56861;DHT22;42744;51.094;3.490;2023-12-14T00:24:54;8.40;99.90
56861;DHT22;42744;51.094;3.490;2023-12-14T00:27:20;8.30;99.90
56861;DHT22;42744;51.094;3.490;2023-12-14T00:29:46;8.30;99.90
56861;DHT22;42744;51.094;3.490;2023-12-14T00:32:12;8.30;99.90
56861;DHT22;42744;51.094;3.490;2023-12-14T00:34:38;8.20;99.90
56861;DHT22;42744;51.094;3.490;2023-12-14T00:37:04;8.20;99.90
56861;DHT22;42744;51.094;3.490;2023-12-14T00:39:30;8.20;99.90
56861;DHT22;42744;51.094;3.490;2023-12-14T00:41:56;8.20;99.90
56861;DHT22;42744;51.094;3.490;2023-12-14T00:44:22;8.10;99.90
56861;DHT22;42744;51.094;3.490;2023-12-14T00:46:48;8.10;99.90
56861;DHT22;42744;51.094;3.490;2023-12-14T00:49:13;8.10;99.90
56861;DHT22;42744;51.094;3.490;2023-12-14T00:51:39;8.00;99.90
56861;DHT22;42744;51.094;3.490;2023-12-14T00:54:06;7.90;99.90
56861;DHT22;42744;51.094;3.490;2023-12-14T00:56:32;7.90;99.90
56861;DHT22;42744;51.094;3.490;2023-12-14T00:58:57;7.80;99.90
56861;DHT22;42744;51.094;3.490;2023-12-14T01:01:23;7.80;99.90
56861;DHT22;42744;51.094;3.490;2023-12-14T01:03:49;7.70;99.90
56861;DHT22;42744;51.094;3.490;2023-12-14T01:06:15;7.70;99.90
56861;DHT22;42744;51.094;3.490;2023-12-14T01:08:41;7.70;99.90
56861;DHT22;42744;51.094;3.490;2023-12-14T01:11:07;7.60;99.90
56861;DHT22;42744;51.094;3.490;2023-12-14T01:13:33;7.60;99.90
56861;DHT22;42744;51.094;3.490;2023-12-14T01:15:59;7.60;99.90
56861;DHT22;42744;51.094;3.490;2023-12-14T01:18:25;7.60;99.90
56861;DHT22;42744;51.094;3.490;2023-12-14T01:20:51;7.60;99.90
56861;DHT22;42744;51.094;3.490;2023-12-14T01:23:17;7.60;99.90
56861;DHT22;42744;51.094;3.490;2023-12-14T01:25:43;7.50;99.90
56861;DHT22;42744;51.094;3.490;2023-12-14T01:28:09;7.50;99.90
56861;DHT22;42744;51.094;3.490;2023-12-14T01:30:35;7.40;99.90
56861;DHT22;42744;51.094;3.490;2023-12-14T01:33:01;7.40;99.90
56861;DHT22;42744;51.094;3.490;2023-12-14T01:35:26;7.40;99.90
56861;DHT22;42744;51.094;3.490;2023-12-14T01:37:55;7.30;99.90
56861;DHT22;42744;51.094;3.490;2023-12-14T01:40:21;7.30;99.90
56861;DHT22;42744;51.094;3.490;2023-12-14T01:42:47;7.30;99.90
56861;DHT22;42744;51.094;3.490;2023-12-14T01:45:13;7.30;99.90
56861;DHT22;42744;51.094;3.490;2023-12-14T01:47:42;7.30;99.90
56861;DHT22;42744;51.094;3.490;2023-12-14T01:50:08;7.30;99.90
56861;DHT22;42744;51.094;3.490;2023-12-14T01:52:34;7.30;99.90
56861;DHT22;42744;51.094;3.490;2023-12-14T01:55:00;7.30;99.90
56861;DHT22;42744;51.094;3.490;2023-12-14T01:57:28;7.30;99.90
56861;DHT22;42744;51.094;3.490;2023-12-14T01:59:54;7.30;99.90
56861;DHT22;42744;51.094;3.490;2023-12-14T02:02:20;7.20;99.90
56861;DHT22;42744;51.094;3.490;2023-12-14T02:04:46;7.20;99.90
56861;DHT22;42744;51.094;3.490;2023-12-14T02:07:12;7.20;99.90
56861;DHT22;42744;51.094;3.490;2023-12-14T02:09:38;7.20;99.90
56861;DHT22;42744;51.094;3.490;2023-12-14T02:12:05;7.20;99.90
56861;DHT22;42744;51.094;3.490;2023-12-14T02:14:31;7.10;99.90
56861;DHT22;42744;51.094;3.490;2023-12-14T02:16:56;7.10;99.90
56861;DHT22;42744;51.094;3.490;2023-12-14T02:19:23;7.10;99.90
56861;DHT22;42744;51.094;3.490;2023-12-14T02:21:48;7.10;99.90
56861;DHT22;42744;51.094;3.490;2023-12-14T02:24:14;7.10;99.90
56861;DHT22;42744;51.094;3.490;2023-12-14T02:26:40;7.10;99.90
56861;DHT22;42744;51.094;3.490;2023-12-14T02:29:06;7.10;99.90
56861;DHT22;42744;51.094;3.490;2023-12-14T02:31:32;7.10;99.90
56861;DHT22;42744;51.094;3.490;2023-12-14T02:33:58;7.10;99.90
56861;DHT22;42744;51.094;3.490;2023-12-14T02:36:24;7.10;99.90
56861;DHT22;42744;51.094;3.490;2023-12-14T02:38:50;7.00;99.90
56861;DHT22;42744;51.094;3.490;2023-12-14T02:41:18;7.00;99.90
56861;DHT22;42744;51.094;3.490;2023-12-14T02:43:44;7.00;99.90
56861;DHT22;42744;51.094;3.490;2023-12-14T02:46:10;7.00;99.90
56861;DHT22;42744;51.094;3.490;2023-12-14T02:48:41;7.00;99.90
56861;DHT22;42744;51.094;3.490;2023-12-14T02:51:12;6.90;99.90
56861;DHT22;42744;51.094;3.490;2023-12-14T02:53:41;6.90;99.90
56861;DHT22;42744;51.094;3.490;2023-12-14T02:56:09;7.00;99.90
56861;DHT22;42744;51.094;3.490;2023-12-14T02:58:35;6.90;99.90
56861;DHT22;42744;51.094;3.490;2023-12-14T03:01:01;6.90;99.90
56861;DHT22;42744;51.094;3.490;2023-12-14T03:03:27;6.90;99.90
56861;DHT22;42744;51.094;3.490;2023-12-14T03:05:54;6.90;99.90
56861;DHT22;42744;51.094;3.490;2023-12-14T03:08:20;6.90;99.90
56861;DHT22;42744;51.094;3.490;2023-12-14T03:10:46;6.90;99.90
56861;DHT22;42744;51.094;3.490;2023-12-14T03:13:12;6.80;99.90
56861;DHT22;42744;51.094;3.490;2023-12-14T03:15:38;6.80;99.90
56861;DHT22;42744;51.094;3.490;2023-12-14T03:18:04;6.80;99.90
56861;DHT22;42744;51.094;3.490;2023-12-14T03:20:30;6.80;99.90
56861;DHT22;42744;51.094;3.490;2023-12-14T03:22:56;6.80;99.90
56861;DHT22;42744;51.094;3.490;2023-12-14T03:25:22;6.80;99.90
56861;DHT22;42744;51.094;3.490;2023-12-14T03:27:48;6.80;99.90
56861;DHT22;42744;51.094;3.490;2023-12-14T03:30:14;6.80;99.90
56861;DHT22;42744;51.094;3.490;2023-12-14T03:32:40;6.80;99.90
56861;DHT22;42744;51.094;3.490;2023-12-14T03:35:06;6.80;99.90
56861;DHT22;42744;51.094;3.490;2023-12-14T03:37:34;6.80;99.90
56861;DHT22;42744;51.094;3.490;2023-12-14T03:40:01;6.80;99.90
56861;DHT22;42744;51.094;3.490;2023-12-14T03:42:26;6.90;99.90
56861;DHT22;42744;51.094;3.490;2023-12-14T03:44:52;6.80;99.90
56861;DHT22;42744;51.094;3.490;2023-12-14T03:47:18;6.80;99.90
56861;DHT22;42744;51.094;3.490;2023-12-14T03:49:44;6.80;99.90
56861;DHT22;42744;51.094;3.490;2023-12-14T03:52:10;6.80;99.90
56861;DHT22;42744;51.094;3.490;2023-12-14T03:54:36;6.80;99.90
56861;DHT22;42744;51.094;3.490;2023-12-14T03:57:02;6.80;99.90
56861;DHT22;42744;51.094;3.490;2023-12-14T03:59:28;6.80;99.90
56861;DHT22;42744;51.094;3.490;2023-12-14T04:01:54;6.80;99.90
56861;DHT22;42744;51.094;3.490;2023-12-14T04:04:20;6.80;99.90
56861;DHT22;42744;51.094;3.490;2023-12-14T04:06:46;6.80;99.90
56861;DHT22;42744;51.094;3.490;2023-12-14T04:09:12;6.80;99.90
56861;DHT22;42744;51.094;3.490;2023-12-14T04:11:38;6.80;99.90
56861;DHT22;42744;51.094;3.490;2023-12-14T04:14:04;6.80;99.90
56861;DHT22;42744;51.094;3.490;2023-12-14T04:16:30;6.80;99.90
56861;DHT22;42744;51.094;3.490;2023-12-14T04:18:56;6.80;99.90
56861;DHT22;42744;51.094;3.490;2023-12-14T04:21:22;6.80;99.90
56861;DHT22;42744;51.094;3.490;2023-12-14T04:23:48;6.90;99.90
56861;DHT22;42744;51.094;3.490;2023-12-14T04:26:14;6.90;99.90
56861;DHT22;42744;51.094;3.490;2023-12-14T04:28:40;6.80;99.90
56861;DHT22;42744;51.094;3.490;2023-12-14T04:31:09;6.80;99.90
56861;DHT22;42744;51.094;3.490;2023-12-14T04:33:36;6.90;99.90
56861;DHT22;42744;51.094;3.490;2023-12-14T04:36:02;6.80;99.90
56861;DHT22;42744;51.094;3.490;2023-12-14T04:38:28;6.80;99.90
56861;DHT22;42744;51.094;3.490;2023-12-14T04:40:54;6.80;99.90
56861;DHT22;42744;51.094;3.490;2023-12-14T04:43:20;6.80;99.90
56861;DHT22;42744;51.094;3.490;2023-12-14T04:45:46;6.80;99.90
56861;DHT22;42744;51.094;3.490;2023-12-14T04:48:12;6.80;99.90
56861;DHT22;42744;51.094;3.490;2023-12-14T04:50:38;6.80;99.90
56861;DHT22;42744;51.094;3.490;2023-12-14T04:53:04;6.80;99.90
56861;DHT22;42744;51.094;3.490;2023-12-14T04:55:30;6.80;99.90
56861;DHT22;42744;51.094;3.490;2023-12-14T04:57:56;6.80;99.90
56861;DHT22;42744;51.094;3.490;2023-12-14T05:00:22;6.80;99.90
56861;DHT22;42744;51.094;3.490;2023-12-14T05:02:48;6.90;99.90
56861;DHT22;42744;51.094;3.490;2023-12-14T05:05:14;6.80;99.90
56861;DHT22;42744;51.094;3.490;2023-12-14T05:07:40;6.80;99.90
56861;DHT22;42744;51.094;3.490;2023-12-14T05:10:06;6.80;99.90
56861;DHT22;42744;51.094;3.490;2023-12-14T05:12:32;6.80;99.90
56861;DHT22;42744;51.094;3.490;2023-12-14T05:14:58;6.80;99.90
56861;DHT22;42744;51.094;3.490;2023-12-14T05:17:24;6.80;99.90
56861;DHT22;42744;51.094;3.490;2023-12-14T05:19:50;6.80;99.90
56861;DHT22;42744;51.094;3.490;2023-12-14T05:22:16;6.80;99.90
56861;DHT22;42744;51.094;3.490;2023-12-14T05:24:48;6.80;99.90
56861;DHT22;42744;51.094;3.490;2023-12-14T05:27:14;6.80;99.90
56861;DHT22;42744;51.094;3.490;2023-12-14T05:29:40;6.80;99.90
56861;DHT22;42744;51.094;3.490;2023-12-14T05:32:06;6.80;99.90
56861;DHT22;42744;51.094;3.490;2023-12-14T05:34:32;6.80;99.90
56861;DHT22;42744;51.094;3.490;2023-12-14T05:36:58;6.80;99.90
56861;DHT22;42744;51.094;3.490;2023-12-14T05:39:24;6.70;99.90
56861;DHT22;42744;51.094;3.490;2023-12-14T05:41:50;6.80;99.90
56861;DHT22;42744;51.094;3.490;2023-12-14T05:44:16;6.80;99.90
56861;DHT22;42744;51.094;3.490;2023-12-14T05:46:42;6.80;99.90
56861;DHT22;42744;51.094;3.490;2023-12-14T05:49:08;6.80;99.90
56861;DHT22;42744;51.094;3.490;2023-12-14T05:51:34;6.80;99.90
56861;DHT22;42744;51.094;3.490;2023-12-14T05:54:00;6.80;99.90
56861;DHT22;42744;51.094;3.490;2023-12-14T05:56:26;6.80;99.90
56861;DHT22;42744;51.094;3.490;2023-12-14T05:58:52;6.70;99.90
56861;DHT22;42744;51.094;3.490;2023-12-14T06:01:24;6.70;99.90
56861;DHT22;42744;51.094;3.490;2023-12-14T06:03:50;6.70;99.90
56861;DHT22;42744;51.094;3.490;2023-12-14T06:06:16;6.70;99.90
56861;DHT22;42744;51.094;3.490;2023-12-14T06:08:42;6.70;99.90
56861;DHT22;42744;51.094;3.490;2023-12-14T06:11:08;6.80;99.90
56861;DHT22;42744;51.094;3.490;2023-12-14T06:13:34;6.70;99.90
56861;DHT22;42744;51.094;3.490;2023-12-14T06:16:00;6.70;99.90
56861;DHT22;42744;51.094;3.490;2023-12-14T06:18:26;6.70;99.90
56861;DHT22;42744;51.094;3.490;2023-12-14T06:20:52;6.70;99.90
56861;DHT22;42744;51.094;3.490;2023-12-14T06:23:18;6.70;99.90
56861;DHT22;42744;51.094;3.490;2023-12-14T06:25:44;6.70;99.90
56861;DHT22;42744;51.094;3.490;2023-12-14T06:28:10;6.70;99.90
56861;DHT22;42744;51.094;3.490;2023-12-14T06:30:36;6.70;99.90
56861;DHT22;42744;51.094;3.490;2023-12-14T06:33:02;6.70;99.90
56861;DHT22;42744;51.094;3.490;2023-12-14T06:35:28;6.70;99.90
56861;DHT22;42744;51.094;3.490;2023-12-14T06:37:54;6.70;99.90
56861;DHT22;42744;51.094;3.490;2023-12-14T06:40:20;6.70;99.90
56861;DHT22;42744;51.094;3.490;2023-12-14T06:42:46;6.70;99.90
56861;DHT22;42744;51.094;3.490;2023-12-14T06:45:12;6.70;99.90
56861;DHT22;42744;51.094;3.490;2023-12-14T06:47:38;6.70;99.90
56861;DHT22;42744;51.094;3.490;2023-12-14T06:50:06;6.70;99.90
56861;DHT22;42744;51.094;3.490;2023-12-14T06:52:32;6.70;99.90
56861;DHT22;42744;51.094;3.490;2023-12-14T06:54:58;6.60;99.90
56861;DHT22;42744;51.094;3.490;2023-12-14T06:57:24;6.70;99.90
56861;DHT22;42744;51.094;3.490;2023-12-14T06:59:50;6.60;99.90
56861;DHT22;42744;51.094;3.490;2023-12-14T07:02:16;6.60;99.90
56861;DHT22;42744;51.094;3.490;2023-12-14T07:04:43;6.70;99.90
56861;DHT22;42744;51.094;3.490;2023-12-14T07:07:09;6.60;99.90
56861;DHT22;42744;51.094;3.490;2023-12-14T07:09:35;6.60;99.90
56861;DHT22;42744;51.094;3.490;2023-12-14T07:12:01;6.60;99.90
56861;DHT22;42744;51.094;3.490;2023-12-14T07:14:28;6.60;99.90
56861;DHT22;42744;51.094;3.490;2023-12-14T07:16:54;6.60;99.90
56861;DHT22;42744;51.094;3.490;2023-12-14T07:19:20;6.50;99.90
56861;DHT22;42744;51.094;3.490;2023-12-14T07:21:46;6.50;99.90
56861;DHT22;42744;51.094;3.490;2023-12-14T07:24:12;6.50;99.90
56861;DHT22;42744;51.094;3.490;2023-12-14T07:26:38;6.40;99.90
56861;DHT22;42744;51.094;3.490;2023-12-14T07:29:03;6.40;99.90
56861;DHT22;42744;51.094;3.490;2023-12-14T07:31:30;6.40;99.90
56861;DHT22;42744;51.094;3.490;2023-12-14T07:33:56;6.40;99.90
56861;DHT22;42744;51.094;3.490;2023-12-14T07:36:22;6.30;99.90
56861;DHT22;42744;51.094;3.490;2023-12-14T07:38:48;6.30;99.90
56861;DHT22;42744;51.094;3.490;2023-12-14T07:41:14;6.30;99.90
56861;DHT22;42744;51.094;3.490;2023-12-14T07:43:40;6.30;99.90
56861;DHT22;42744;51.094;3.490;2023-12-14T07:46:06;6.30;99.90
56861;DHT22;42744;51.094;3.490;2023-12-14T07:48:32;6.40;99.90
56861;DHT22;42744;51.094;3.490;2023-12-14T07:50:58;6.40;99.90
56861;DHT22;42744;51.094;3.490;2023-12-14T07:53:24;6.40;99.90
56861;DHT22;42744;51.094;3.490;2023-12-14T07:55:50;6.40;99.90
56861;DHT22;42744;51.094;3.490;2023-12-14T07:58:19;6.50;99.90
56861;DHT22;42744;51.094;3.490;2023-12-14T08:00:45;6.50;99.90
56861;DHT22;42744;51.094;3.490;2023-12-14T08:03:11;6.50;99.90
56861;DHT22;42744;51.094;3.490;2023-12-14T08:05:37;6.60;99.90
56861;DHT22;42744;51.094;3.490;2023-12-14T08:08:03;6.60;99.90
56861;DHT22;42744;51.094;3.490;2023-12-14T08:10:29;6.60;99.90
56861;DHT22;42744;51.094;3.490;2023-12-14T08:12:55;6.60;99.90
56861;DHT22;42744;51.094;3.490;2023-12-14T08:15:21;6.70;99.90
56861;DHT22;42744;51.094;3.490;2023-12-14T08:17:47;6.60;99.90
56861;DHT22;42744;51.094;3.490;2023-12-14T08:20:13;6.70;99.90
56861;DHT22;42744;51.094;3.490;2023-12-14T08:22:39;6.70;99.90
56861;DHT22;42744;51.094;3.490;2023-12-14T08:25:13;6.70;99.90
56861;DHT22;42744;51.094;3.490;2023-12-14T08:27:43;6.70;99.90
56861;DHT22;42744;51.094;3.490;2023-12-14T08:30:13;6.70;99.90
56861;DHT22;42744;51.094;3.490;2023-12-14T08:32:39;6.70;99.90
56861;DHT22;42744;51.094;3.490;2023-12-14T08:35:05;6.70;99.90
56861;DHT22;42744;51.094;3.490;2023-12-14T08:37:31;6.70;99.90
56861;DHT22;42744;51.094;3.490;2023-12-14T08:39:57;6.80;99.90
56861;DHT22;42744;51.094;3.490;2023-12-14T08:42:23;6.80;99.90
56861;DHT22;42744;51.094;3.490;2023-12-14T08:44:49;6.80;99.90
56861;DHT22;42744;51.094;3.490;2023-12-14T08:47:15;6.80;99.90
56861;DHT22;42744;51.094;3.490;2023-12-14T08:49:40;6.80;99.90
56861;DHT22;42744;51.094;3.490;2023-12-14T08:52:07;6.80;99.90
56861;DHT22;42744;51.094;3.490;2023-12-14T08:54:33;6.90;99.90
56861;DHT22;42744;51.094;3.490;2023-12-14T08:56:59;6.90;99.90
56861;DHT22;42744;51.094;3.490;2023-12-14T08:59:26;6.90;99.90
56861;DHT22;42744;51.094;3.490;2023-12-14T09:01:56;6.90;99.90
56861;DHT22;42744;51.094;3.490;2023-12-14T09:04:26;6.90;99.90
56861;DHT22;42744;51.094;3.490;2023-12-14T09:06:54;7.00;99.90
56861;DHT22;42744;51.094;3.490;2023-12-14T09:09:23;7.00;99.90
56861;DHT22;42744;51.094;3.490;2023-12-14T09:11:53;7.00;99.90
56861;DHT22;42744;51.094;3.490;2023-12-14T09:14:23;7.00;99.90
56861;DHT22;42744;51.094;3.490;2023-12-14T09:16:51;7.10;99.90
56861;DHT22;42744;51.094;3.490;2023-12-14T09:19:17;7.10;99.90
56861;DHT22;42744;51.094;3.490;2023-12-14T09:21:44;7.10;99.90
56861;DHT22;42744;51.094;3.490;2023-12-14T09:24:10;7.20;99.90
56861;DHT22;42744;51.094;3.490;2023-12-14T09:26:36;7.20;99.90
56861;DHT22;42744;51.094;3.490;2023-12-14T09:29:02;7.30;99.90
56861;DHT22;42744;51.094;3.490;2023-12-14T09:31:28;7.40;99.90
56861;DHT22;42744;51.094;3.490;2023-12-14T09:33:54;7.40;99.90
56861;DHT22;42744;51.094;3.490;2023-12-14T09:36:20;7.40;99.90
56861;DHT22;42744;51.094;3.490;2023-12-14T09:38:48;7.40;99.90
56861;DHT22;42744;51.094;3.490;2023-12-14T09:41:21;7.40;99.90
56861;DHT22;42744;51.094;3.490;2023-12-14T09:43:47;7.40;99.90
56861;DHT22;42744;51.094;3.490;2023-12-14T09:46:13;7.30;99.90
56861;DHT22;42744;51.094;3.490;2023-12-14T09:48:41;7.40;99.90
56861;DHT22;42744;51.094;3.490;2023-12-14T09:51:07;7.40;99.90
56861;DHT22;42744;51.094;3.490;2023-12-14T09:53:33;7.40;99.90
56861;DHT22;42744;51.094;3.490;2023-12-14T09:55:59;7.40;99.90
56861;DHT22;42744;51.094;3.490;2023-12-14T09:58:25;7.50;99.90
56861;DHT22;42744;51.094;3.490;2023-12-14T10:00:51;7.50;99.90
56861;DHT22;42744;51.094;3.490;2023-12-14T10:03:22;7.50;99.90
56861;DHT22;42744;51.094;3.490;2023-12-14T10:05:49;7.50;99.90
56861;DHT22;42744;51.094;3.490;2023-12-14T10:08:16;7.50;99.90
56861;DHT22;42744;51.094;3.490;2023-12-14T10:10:43;7.60;99.90
56861;DHT22;42744;51.094;3.490;2023-12-14T10:13:09;7.70;99.90
56861;DHT22;42744;51.094;3.490;2023-12-14T10:15:47;7.70;99.90
56861;DHT22;42744;51.094;3.490;2023-12-14T10:18:23;7.70;99.90
56861;DHT22;42744;51.094;3.490;2023-12-14T10:20:52;7.80;99.90
56861;DHT22;42744;51.094;3.490;2023-12-14T10:23:19;7.80;99.90
56861;DHT22;42744;51.094;3.490;2023-12-14T10:25:46;7.90;99.90
56861;DHT22;42744;51.094;3.490;2023-12-14T10:28:13;8.00;99.90
56861;DHT22;42744;51.094;3.490;2023-12-14T10:30:42;8.10;99.90
56861;DHT22;42744;51.094;3.490;2023-12-14T10:33:08;8.10;99.90
56861;DHT22;42744;51.094;3.490;2023-12-14T10:35:34;8.20;99.90
56861;DHT22;42744;51.094;3.490;2023-12-14T10:38:05;8.20;99.90
56861;DHT22;42744;51.094;3.490;2023-12-14T10:40:34;8.20;99.90
56861;DHT22;42744;51.094;3.490;2023-12-14T10:43:03;8.20;99.90
56861;DHT22;42744;51.094;3.490;2023-12-14T10:45:32;8.30;99.90
56861;DHT22;42744;51.094;3.490;2023-12-14T10:47:59;8.30;99.90
56861;DHT22;42744;51.094;3.490;2023-12-14T10:50:30;8.30;99.90
56861;DHT22;42744;51.094;3.490;2023-12-14T10:52:57;8.40;99.90
56861;DHT22;42744;51.094;3.490;2023-12-14T10:57:57;8.30;99.90
56861;DHT22;42744;51.094;3.490;2023-12-14T11:00:24;8.30;99.90
56861;DHT22;42744;51.094;3.490;2023-12-14T11:02:51;8.30;99.90
56861;DHT22;42744;51.094;3.490;2023-12-14T11:05:18;8.30;99.90
56861;DHT22;42744;51.094;3.490;2023-12-14T11:08:02;8.30;99.90
56861;DHT22;42744;51.094;3.490;2023-12-14T11:11:03;8.30;99.90
56861;DHT22;42744;51.094;3.490;2023-12-14T11:13:35;8.30;99.90
56861;DHT22;42744;51.094;3.490;2023-12-14T11:16:04;8.30;99.90
56861;DHT22;42744;51.094;3.490;2023-12-14T11:18:30;8.30;99.90
56861;DHT22;42744;51.094;3.490;2023-12-14T11:20:58;8.30;99.90
56861;DHT22;42744;51.094;3.490;2023-12-14T11:25:57;8.30;99.90
56861;DHT22;42744;51.094;3.490;2023-12-14T11:28:23;8.40;99.90
56861;DHT22;42744;51.094;3.490;2023-12-14T11:30:50;8.40;99.90
56861;DHT22;42744;51.094;3.490;2023-12-14T11:33:16;8.40;99.90
56861;DHT22;42744;51.094;3.490;2023-12-14T11:35:42;8.40;99.90
56861;DHT22;42744;51.094;3.490;2023-12-14T11:38:09;8.40;99.90
56861;DHT22;42744;51.094;3.490;2023-12-14T11:40:42;8.40;99.90
56861;DHT22;42744;51.094;3.490;2023-12-14T11:43:08;8.50;99.90
56861;DHT22;42744;51.094;3.490;2023-12-14T11:45:39;8.50;99.90
56861;DHT22;42744;51.094;3.490;2023-12-14T11:48:07;8.50;99.90
56861;DHT22;42744;51.094;3.490;2023-12-14T11:50:34;8.50;99.90
56861;DHT22;42744;51.094;3.490;2023-12-14T11:53:01;8.50;99.90
56861;DHT22;42744;51.094;3.490;2023-12-14T11:55:33;8.50;99.90
56861;DHT22;42744;51.094;3.490;2023-12-14T11:58:00;8.50;99.90
56861;DHT22;42744;51.094;3.490;2023-12-14T12:00:28;8.50;99.90
56861;DHT22;42744;51.094;3.490;2023-12-14T12:03:17;8.50;99.90
56861;DHT22;42744;51.094;3.490;2023-12-14T12:05:47;8.50;99.90
56861;DHT22;42744;51.094;3.490;2023-12-14T12:08:18;8.50;99.90
56861;DHT22;42744;51.094;3.490;2023-12-14T12:10:45;8.50;99.90
56861;DHT22;42744;51.094;3.490;2023-12-14T12:13:13;8.50;99.90
56861;DHT22;42744;51.094;3.490;2023-12-14T12:15:40;8.50;99.90
56861;DHT22;42744;51.094;3.490;2023-12-14T12:18:09;8.50;99.90
56861;DHT22;42744;51.094;3.490;2023-12-14T12:20:35;8.50;99.90
56861;DHT22;42744;51.094;3.490;2023-12-14T12:23:01;8.50;99.90
56861;DHT22;42744;51.094;3.490;2023-12-14T12:25:29;8.40;99.90
56861;DHT22;42744;51.094;3.490;2023-12-14T12:28:00;8.40;99.90
56861;DHT22;42744;51.094;3.490;2023-12-14T12:30:27;8.40;99.90
56861;DHT22;42744;51.094;3.490;2023-12-14T12:32:53;8.40;99.90
56861;DHT22;42744;51.094;3.490;2023-12-14T12:35:22;8.40;99.90
56861;DHT22;42744;51.094;3.490;2023-12-14T12:37:49;8.40;99.90
56861;DHT22;42744;51.094;3.490;2023-12-14T12:40:23;8.50;99.90
56861;DHT22;42744;51.094;3.490;2023-12-14T12:42:52;8.70;99.90
56861;DHT22;42744;51.094;3.490;2023-12-14T12:45:18;9.00;99.90
56861;DHT22;42744;51.094;3.490;2023-12-14T12:47:45;9.00;99.90
56861;DHT22;42744;51.094;3.490;2023-12-14T12:50:12;9.00;99.90
56861;DHT22;42744;51.094;3.490;2023-12-14T12:52:38;8.90;99.90
56861;DHT22;42744;51.094;3.490;2023-12-14T12:55:05;8.80;99.90
56861;DHT22;42744;51.094;3.490;2023-12-14T12:57:32;8.80;99.90
56861;DHT22;42744;51.094;3.490;2023-12-14T12:59:58;8.70;99.90
56861;DHT22;42744;51.094;3.490;2023-12-14T13:02:24;8.70;99.90
56861;DHT22;42744;51.094;3.490;2023-12-14T13:04:50;8.60;99.90
56861;DHT22;42744;51.094;3.490;2023-12-14T13:07:16;8.50;99.90
56861;DHT22;42744;51.094;3.490;2023-12-14T13:09:43;8.50;99.90
56861;DHT22;42744;51.094;3.490;2023-12-14T13:12:09;8.40;99.90
56861;DHT22;42744;51.094;3.490;2023-12-14T13:14:36;8.40;99.90
56861;DHT22;42744;51.094;3.490;2023-12-14T13:17:01;8.40;99.90
56861;DHT22;42744;51.094;3.490;2023-12-14T13:19:28;8.40;99.90
56861;DHT22;42744;51.094;3.490;2023-12-14T13:21:54;8.40;99.90
56861;DHT22;42744;51.094;3.490;2023-12-14T13:24:23;8.40;99.90
56861;DHT22;42744;51.094;3.490;2023-12-14T13:26:50;8.40;99.90
56861;DHT22;42744;51.094;3.490;2023-12-14T13:29:16;8.40;99.90
56861;DHT22;42744;51.094;3.490;2023-12-14T13:31:42;8.40;99.90
56861;DHT22;42744;51.094;3.490;2023-12-14T13:34:08;8.40;99.90
56861;DHT22;42744;51.094;3.490;2023-12-14T13:36:34;8.30;99.90
56861;DHT22;42744;51.094;3.490;2023-12-14T13:39:00;8.30;99.90
56861;DHT22;42744;51.094;3.490;2023-12-14T13:41:27;8.30;99.90
56861;DHT22;42744;51.094;3.490;2023-12-14T13:43:53;8.30;99.90
56861;DHT22;42744;51.094;3.490;2023-12-14T13:46:20;8.30;99.90
56861;DHT22;42744;51.094;3.490;2023-12-14T13:48:46;8.30;99.90
56861;DHT22;42744;51.094;3.490;2023-12-14T13:51:12;8.30;99.90
56861;DHT22;42744;51.094;3.490;2023-12-14T13:53:38;8.30;99.90
56861;DHT22;42744;51.094;3.490;2023-12-14T13:56:05;8.20;99.90
56861;DHT22;42744;51.094;3.490;2023-12-14T13:58:31;8.20;99.90
56861;DHT22;42744;51.094;3.490;2023-12-14T14:01:00;8.20;99.90
56861;DHT22;42744;51.094;3.490;2023-12-14T14:03:26;8.20;99.90
56861;DHT22;42744;51.094;3.490;2023-12-14T14:05:53;8.20;99.90
56861;DHT22;42744;51.094;3.490;2023-12-14T14:08:19;8.20;99.90
56861;DHT22;42744;51.094;3.490;2023-12-14T14:10:45;8.20;99.90
56861;DHT22;42744;51.094;3.490;2023-12-14T14:13:11;8.20;99.90
56861;DHT22;42744;51.094;3.490;2023-12-14T14:15:37;8.20;99.90
56861;DHT22;42744;51.094;3.490;2023-12-14T14:18:03;8.20;99.90
56861;DHT22;42744;51.094;3.490;2023-12-14T14:20:29;8.20;99.90
56861;DHT22;42744;51.094;3.490;2023-12-14T14:22:55;8.20;99.90
56861;DHT22;42744;51.094;3.490;2023-12-14T14:25:23;8.20;99.90
56861;DHT22;42744;51.094;3.490;2023-12-14T14:27:48;8.20;99.90
56861;DHT22;42744;51.094;3.490;2023-12-14T14:30:14;8.20;99.90
56861;DHT22;42744;51.094;3.490;2023-12-14T14:32:42;8.20;99.90
56861;DHT22;42744;51.094;3.490;2023-12-14T14:35:08;8.20;99.90
56861;DHT22;42744;51.094;3.490;2023-12-14T14:37:34;8.20;99.90
56861;DHT22;42744;51.094;3.490;2023-12-14T14:40:00;8.20;99.90
56861;DHT22;42744;51.094;3.490;2023-12-14T14:42:26;8.10;99.90
56861;DHT22;42744;51.094;3.490;2023-12-14T14:44:52;8.10;99.90
56861;DHT22;42744;51.094;3.490;2023-12-14T14:47:18;8.10;99.90
56861;DHT22;42744;51.094;3.490;2023-12-14T14:49:44;8.10;99.90
56861;DHT22;42744;51.094;3.490;2023-12-14T14:52:10;8.00;99.90
56861;DHT22;42744;51.094;3.490;2023-12-14T14:54:36;8.00;99.90
56861;DHT22;42744;51.094;3.490;2023-12-14T14:57:02;8.00;99.90
56861;DHT22;42744;51.094;3.490;2023-12-14T14:59:28;8.00;99.90
56861;DHT22;42744;51.094;3.490;2023-12-14T15:01:56;8.00;99.90
56861;DHT22;42744;51.094;3.490;2023-12-14T15:04:24;8.00;99.90
56861;DHT22;42744;51.094;3.490;2023-12-14T15:06:50;7.90;99.90
56861;DHT22;42744;51.094;3.490;2023-12-14T15:09:16;7.90;99.90
56861;DHT22;42744;51.094;3.490;2023-12-14T15:11:42;7.90;99.90
56861;DHT22;42744;51.094;3.490;2023-12-14T15:14:08;7.90;99.90
56861;DHT22;42744;51.094;3.490;2023-12-14T15:16:34;7.90;99.90
56861;DHT22;42744;51.094;3.490;2023-12-14T15:19:01;7.90;99.90
56861;DHT22;42744;51.094;3.490;2023-12-14T15:21:27;7.80;99.90
56861;DHT22;42744;51.094;3.490;2023-12-14T15:23:53;7.80;99.90
56861;DHT22;42744;51.094;3.490;2023-12-14T15:26:19;7.80;99.90
56861;DHT22;42744;51.094;3.490;2023-12-14T15:28:45;7.80;99.90
56861;DHT22;42744;51.094;3.490;2023-12-14T15:31:11;7.80;99.90
56861;DHT22;42744;51.094;3.490;2023-12-14T15:33:37;7.70;99.90
56861;DHT22;42744;51.094;3.490;2023-12-14T15:36:03;7.70;99.90
56861;DHT22;42744;51.094;3.490;2023-12-14T15:38:30;7.70;99.90
56861;DHT22;42744;51.094;3.490;2023-12-14T15:40:56;7.70;99.90
56861;DHT22;42744;51.094;3.490;2023-12-14T15:43:21;7.70;99.90
56861;DHT22;42744;51.094;3.490;2023-12-14T15:45:48;7.60;99.90